createdAt,value
2022-11-05T00:00:40.406Z,11.20
2022-11-05T00:07:02.568Z,11.20
2022-11-05T00:13:14.456Z,11.10
2022-11-05T00:19:10.424Z,11.10
2022-11-05T00:25:16.974Z,11.10
2022-11-05T00:31:11.933Z,11.10
2022-11-05T00:37:06.605Z,11.10
2022-11-05T00:43:22.876Z,11.10
2022-11-05T00:49:31.360Z,11.10
2022-11-05T00:55:28.601Z,11.10
2022-11-05T01:01:22.137Z,11.00
2022-11-05T01:07:15.561Z,10.90
2022-11-05T01:13:13.120Z,10.90
2022-11-05T01:19:09.232Z,10.90
2022-11-05T01:25:02.531Z,10.80
2022-11-05T01:30:58.983Z,10.60
2022-11-05T01:36:52.362Z,10.20
2022-11-05T01:42:45.837Z,10.20
2022-11-05T01:48:40.420Z,10.30
2022-11-05T01:54:36.063Z,10.20
2022-11-05T02:00:29.417Z,10.30
2022-11-05T02:06:24.156Z,10.20
2022-11-05T02:12:17.571Z,10.10
2022-11-05T02:18:20.697Z,10.00
2022-11-05T02:24:53.222Z,10.10
2022-11-05T02:30:52.402Z,10.20
2022-11-05T02:36:50.133Z,10.20
2022-11-05T02:42:50.879Z,10.30
2022-11-05T02:48:51.272Z,10.20
2022-11-05T02:54:48.744Z,10.30
2022-11-05T03:00:46.252Z,10.40
2022-11-05T03:06:55.911Z,10.40
2022-11-05T03:13:02.798Z,10.40
2022-11-05T03:19:02.357Z,10.50
2022-11-05T03:25:01.935Z,10.40
2022-11-05T03:30:57.358Z,10.40
2022-11-05T03:36:54.554Z,10.30
2022-11-05T03:42:53.488Z,10.20
2022-11-05T03:48:53.223Z,10.30
2022-11-05T03:54:48.343Z,10.10
2022-11-05T04:00:42.934Z,10.20
2022-11-05T04:06:53.925Z,10.10
2022-11-05T04:13:04.802Z,10.20
2022-11-05T04:18:59.018Z,10.10
2022-11-05T04:24:51.890Z,10.10
2022-11-05T04:30:45.628Z,10.10
2022-11-05T04:36:39.833Z,10.10
2022-11-05T04:42:33.157Z,10.00
2022-11-05T04:48:26.219Z,10.10
2022-11-05T04:54:21.053Z,10.10
2022-11-05T05:00:14.257Z,10.00
2022-11-05T05:06:08.053Z,10.00
2022-11-05T05:12:02.993Z,10.00
2022-11-05T05:17:56.031Z,10.00
2022-11-05T05:23:49.131Z,10.00
2022-11-05T05:29:44.237Z,9.90
2022-11-05T05:35:37.548Z,9.90
2022-11-05T05:41:30.860Z,9.90
2022-11-05T05:47:25.493Z,9.90
2022-11-05T05:53:18.832Z,9.80
2022-11-05T05:59:12.121Z,9.80
2022-11-05T06:05:07.613Z,9.70
2022-11-05T06:11:00.949Z,9.70
2022-11-05T06:16:54.324Z,9.70
2022-11-05T06:22:57.334Z,9.70
2022-11-05T06:28:50.207Z,9.70
2022-11-05T06:34:43.517Z,9.60
2022-11-05T06:40:38.160Z,9.50
2022-11-05T06:46:31.051Z,9.30
2022-11-05T06:52:24.311Z,9.20
2022-11-05T06:58:18.495Z,9.20
2022-11-05T07:04:15.593Z,9.30
2022-11-05T07:10:13.859Z,9.40
2022-11-05T07:16:10.678Z,9.40
2022-11-05T07:22:03.975Z,9.40
2022-11-05T07:27:56.943Z,9.40
2022-11-05T07:33:51.591Z,9.40
2022-11-05T07:39:44.922Z,9.40
2022-11-05T07:45:38.212Z,9.40
2022-11-05T07:51:32.842Z,9.40
2022-11-05T07:57:26.156Z,9.40
2022-11-05T08:03:20.603Z,9.40
2022-11-05T08:09:15.729Z,9.30
2022-11-05T08:15:10.363Z,9.30
2022-11-05T08:21:05.183Z,9.30
2022-11-05T08:26:59.880Z,9.30
2022-11-05T08:32:52.902Z,9.20
2022-11-05T08:38:46.283Z,9.10
2022-11-05T08:44:40.634Z,9.20
2022-11-05T08:50:34.767Z,9.30
2022-11-05T08:56:28.377Z,9.20
2022-11-05T09:02:22.707Z,9.30
2022-11-05T09:08:18.113Z,9.40
2022-11-05T09:14:11.513Z,9.50
2022-11-05T09:20:07.679Z,9.60
2022-11-05T09:26:00.607Z,9.70
2022-11-05T09:31:53.989Z,10.00
2022-11-05T09:37:48.743Z,10.20
2022-11-05T09:43:44.982Z,10.30
2022-11-05T09:49:42.707Z,10.40
2022-11-05T09:55:40.133Z,10.60
2022-11-05T10:01:38.137Z,10.80
2022-11-05T10:07:35.360Z,10.90
2022-11-05T10:13:36.742Z,11.20
2022-11-05T10:19:40.324Z,11.50
2022-11-05T10:25:38.015Z,11.80
2022-11-05T10:31:37.237Z,12.10
2022-11-05T10:37:32.940Z,12.30
2022-11-05T10:43:33.701Z,12.60
2022-11-05T10:49:43.222Z,12.90
2022-11-05T10:55:38.994Z,13.00
2022-11-05T11:01:33.690Z,13.20
2022-11-05T11:07:28.400Z,13.40
2022-11-05T11:13:24.024Z,13.50
2022-11-05T11:19:27.553Z,13.60
2022-11-05T11:25:27.196Z,13.50
2022-11-05T11:31:25.257Z,13.00
2022-11-05T11:37:21.171Z,13.10
2022-11-05T11:43:25.814Z,13.30
2022-11-05T11:49:33.482Z,13.40
2022-11-05T11:55:28.075Z,13.70
2022-11-05T12:01:57.494Z,13.80
2022-11-05T12:07:55.447Z,13.80
2022-11-05T12:13:59.509Z,13.60
2022-11-05T12:20:09.213Z,13.40
2022-11-05T12:26:12.979Z,13.40
2022-11-05T12:32:31.695Z,13.20
2022-11-05T12:38:41.300Z,13.10
2022-11-05T12:44:55.905Z,12.90
2022-11-05T12:50:54.559Z,12.90
2022-11-05T12:56:51.383Z,13.00
2022-11-05T13:02:53.072Z,13.40
2022-11-05T13:08:51.064Z,13.50
2022-11-05T13:14:48.401Z,13.70
2022-11-05T13:20:47.716Z,14.00
2022-11-05T13:26:47.232Z,14.10
2022-11-05T13:32:44.626Z,14.00
2022-11-05T13:39:02.565Z,14.00
2022-11-05T13:45:21.949Z,13.90
2022-11-05T13:51:40.009Z,13.90
2022-11-05T13:58:30.302Z,13.90
2022-11-05T14:04:35.395Z,13.80
2022-11-05T14:10:40.419Z,13.80
2022-11-05T14:16:49.644Z,13.80
2022-11-05T14:22:44.410Z,13.80
2022-11-05T14:28:44.300Z,13.70
2022-11-05T14:34:47.492Z,13.80
2022-11-05T14:40:44.743Z,13.80
2022-11-05T14:46:43.069Z,13.80
2022-11-05T14:52:37.322Z,13.60
2022-11-05T14:58:37.113Z,13.50
2022-11-05T15:04:32.329Z,13.30
2022-11-05T15:10:52.795Z,13.30
2022-11-05T15:16:51.551Z,13.20
2022-11-05T15:22:47.827Z,13.20
2022-11-05T15:28:44.641Z,13.00
2022-11-05T15:34:39.379Z,13.00
2022-11-05T15:40:34.394Z,12.90
2022-11-05T15:46:28.997Z,12.90
2022-11-05T15:52:25.466Z,12.80
2022-11-05T15:58:18.896Z,12.60
2022-11-05T16:04:16.719Z,12.60
2022-11-05T16:10:21.236Z,12.40
2022-11-05T16:16:26.652Z,12.30
2022-11-05T16:22:20.199Z,12.40
2022-11-05T16:28:23.729Z,12.30
2022-11-05T16:34:27.051Z,12.30
2022-11-05T16:40:22.477Z,12.20
2022-11-05T16:46:17.513Z,12.30
2022-11-05T16:52:12.545Z,12.00
2022-11-05T16:58:06.583Z,12.00
2022-11-05T17:04:00.913Z,12.10
2022-11-05T17:09:54.329Z,12.00
2022-11-05T17:15:50.674Z,12.00
2022-11-05T17:21:45.390Z,11.90
2022-11-05T17:27:38.691Z,11.70
2022-11-05T17:33:32.055Z,11.70
2022-11-05T17:39:31.425Z,11.70
2022-11-05T17:45:24.808Z,11.60
2022-11-05T17:51:20.135Z,11.80
2022-11-05T17:57:14.925Z,11.80
2022-11-05T18:03:08.276Z,11.70
2022-11-05T18:09:01.641Z,11.50
2022-11-05T18:14:56.287Z,11.50
2022-11-05T18:20:49.602Z,11.60
2022-11-05T18:26:43.924Z,11.50
2022-11-05T18:32:38.242Z,11.50
2022-11-05T18:38:31.101Z,11.50
2022-11-05T18:44:25.194Z,11.40
2022-11-05T18:50:21.093Z,11.40
2022-11-05T18:56:16.701Z,11.20
2022-11-05T19:02:11.823Z,11.10
2022-11-05T19:08:06.896Z,10.90
2022-11-05T19:15:19.928Z,11.00
2022-11-05T19:28:39.967Z,11.30
2022-11-05T19:34:33.238Z,11.10
2022-11-05T19:40:44.702Z,11.00
2022-11-05T19:46:42.386Z,11.10
2022-11-05T19:52:35.729Z,11.20
2022-11-05T19:58:29.152Z,11.20
2022-11-05T20:04:23.921Z,10.90
2022-11-05T20:10:17.291Z,10.90
2022-11-05T20:16:21.324Z,10.90
2022-11-05T20:22:16.099Z,11.00
2022-11-05T20:28:09.730Z,11.00
2022-11-05T20:34:03.349Z,11.10
2022-11-05T20:39:57.580Z,11.00
2022-11-05T20:45:50.855Z,10.70
2022-11-05T20:51:44.382Z,10.80
2022-11-05T20:57:39.244Z,11.00
2022-11-05T21:03:32.855Z,11.00
2022-11-05T21:09:26.332Z,10.70
2022-11-05T21:15:23.486Z,10.70
2022-11-05T21:21:18.125Z,10.70
2022-11-05T21:27:11.080Z,10.80
2022-11-05T21:33:05.801Z,10.50
2022-11-05T21:38:59.123Z,10.60
2022-11-05T21:44:57.732Z,10.60
2022-11-05T21:51:12.919Z,10.70
2022-11-05T21:57:23.806Z,10.60
2022-11-05T22:03:17.160Z,10.70
2022-11-05T22:09:11.876Z,10.80
2022-11-05T22:15:06.319Z,10.50
2022-11-05T22:20:59.710Z,10.50
2022-11-05T22:26:54.386Z,10.70
2022-11-05T22:32:47.686Z,10.30
2022-11-05T22:38:41.603Z,10.50
2022-11-05T22:44:36.404Z,10.40
2022-11-05T22:50:29.782Z,10.40
2022-11-05T22:56:25.868Z,10.30
2022-11-05T23:02:20.595Z,10.20
2022-11-05T23:08:31.519Z,10.20
2022-11-05T23:14:25.250Z,10.10
2022-11-05T23:20:39.734Z,10.00
2022-11-05T23:26:52.772Z,10.20
2022-11-05T23:32:46.418Z,10.20
2022-11-05T23:38:41.160Z,10.30
2022-11-05T23:44:52.093Z,10.20
2022-11-05T23:50:47.732Z,10.10
2022-11-05T23:56:42.464Z,10.40
